sensor_id;sensor_type;location;lat;lon;timestamp;temperature;humidity
18189;DHT22;9219;50.396;8.546;2024-03-02T00:00:02;7.20;99.90
18189;DHT22;9219;50.396;8.546;2024-03-02T00:02:41;7.30;99.90
18189;DHT22;9219;50.396;8.546;2024-03-02T00:05:15;7.30;99.90
18189;DHT22;9219;50.396;8.546;2024-03-02T00:08:37;7.30;99.90
18189;DHT22;9219;50.396;8.546;2024-03-02T00:11:12;7.20;99.90
18189;DHT22;9219;50.396;8.546;2024-03-02T00:13:42;7.20;99.90
18189;DHT22;9219;50.396;8.546;2024-03-02T00:19:11;7.20;99.90
18189;DHT22;9219;50.396;8.546;2024-03-02T00:21:40;7.10;99.90
18189;DHT22;9219;50.396;8.546;2024-03-02T00:24:30;7.10;99.90
18189;DHT22;9219;50.396;8.546;2024-03-02T00:26:58;7.10;99.90
18189;DHT22;9219;50.396;8.546;2024-03-02T00:29:26;7.10;99.90
18189;DHT22;9219;50.396;8.546;2024-03-02T00:31:55;7.20;99.90
18189;DHT22;9219;50.396;8.546;2024-03-02T00:34:23;7.20;99.90
18189;DHT22;9219;50.396;8.546;2024-03-02T00:36:51;7.30;99.90
18189;DHT22;9219;50.396;8.546;2024-03-02T00:44:36;7.30;99.90
18189;DHT22;9219;50.396;8.546;2024-03-02T00:47:07;7.30;99.90
18189;DHT22;9219;50.396;8.546;2024-03-02T00:49:34;7.20;99.90
18189;DHT22;9219;50.396;8.546;2024-03-02T00:52:05;7.10;99.90
18189;DHT22;9219;50.396;8.546;2024-03-02T00:54:47;7.00;99.90
18189;DHT22;9219;50.396;8.546;2024-03-02T00:57:22;6.90;99.90
18189;DHT22;9219;50.396;8.546;2024-03-02T01:00:05;6.90;99.90
18189;DHT22;9219;50.396;8.546;2024-03-02T01:02:40;6.90;99.90
18189;DHT22;9219;50.396;8.546;2024-03-02T01:05:18;6.80;99.90
18189;DHT22;9219;50.396;8.546;2024-03-02T01:10:55;6.80;99.90
18189;DHT22;9219;50.396;8.546;2024-03-02T01:13:27;6.70;99.90
18189;DHT22;9219;50.396;8.546;2024-03-02T01:15:58;6.70;99.90
18189;DHT22;9219;50.396;8.546;2024-03-02T01:18:49;6.60;99.90
18189;DHT22;9219;50.396;8.546;2024-03-02T01:24:20;6.80;99.90
18189;DHT22;9219;50.396;8.546;2024-03-02T01:26:59;6.80;99.90
18189;DHT22;9219;50.396;8.546;2024-03-02T01:29:30;6.90;99.90
18189;DHT22;9219;50.396;8.546;2024-03-02T01:32:05;7.00;99.90
18189;DHT22;9219;50.396;8.546;2024-03-02T01:34:32;6.90;99.90
18189;DHT22;9219;50.396;8.546;2024-03-02T01:37:02;7.00;99.90
18189;DHT22;9219;50.396;8.546;2024-03-02T01:39:44;7.00;99.90
18189;DHT22;9219;50.396;8.546;2024-03-02T01:45:32;6.90;99.90
18189;DHT22;9219;50.396;8.546;2024-03-02T01:48:10;7.00;99.90
18189;DHT22;9219;50.396;8.546;2024-03-02T01:50:38;6.90;99.90
18189;DHT22;9219;50.396;8.546;2024-03-02T01:53:08;6.90;99.90
18189;DHT22;9219;50.396;8.546;2024-03-02T01:55:58;6.90;99.90
18189;DHT22;9219;50.396;8.546;2024-03-02T01:58:26;7.10;99.90
18189;DHT22;9219;50.396;8.546;2024-03-02T02:00:55;7.10;99.90
18189;DHT22;9219;50.396;8.546;2024-03-02T02:03:23;7.20;99.90
18189;DHT22;9219;50.396;8.546;2024-03-02T02:11:06;7.30;99.90
18189;DHT22;9219;50.396;8.546;2024-03-02T02:13:34;7.40;99.90
18189;DHT22;9219;50.396;8.546;2024-03-02T02:16:06;7.40;99.90
18189;DHT22;9219;50.396;8.546;2024-03-02T02:18:35;7.30;99.90
18189;DHT22;9219;50.396;8.546;2024-03-02T02:21:04;7.30;99.90
18189;DHT22;9219;50.396;8.546;2024-03-02T02:23:32;7.30;99.90
18189;DHT22;9219;50.396;8.546;2024-03-02T02:26:03;7.30;99.90
18189;DHT22;9219;50.396;8.546;2024-03-02T02:28:32;7.20;99.90
18189;DHT22;9219;50.396;8.546;2024-03-02T02:34:18;7.00;99.90
18189;DHT22;9219;50.396;8.546;2024-03-02T02:36:47;7.00;99.90
18189;DHT22;9219;50.396;8.546;2024-03-02T02:39:17;7.10;99.90
18189;DHT22;9219;50.396;8.546;2024-03-02T02:41:52;7.10;99.90
18189;DHT22;9219;50.396;8.546;2024-03-02T02:44:22;7.20;99.90
18189;DHT22;9219;50.396;8.546;2024-03-02T02:46:51;7.20;99.90
18189;DHT22;9219;50.396;8.546;2024-03-02T02:49:22;7.20;99.90
18189;DHT22;9219;50.396;8.546;2024-03-02T02:57:07;7.10;99.90
18189;DHT22;9219;50.396;8.546;2024-03-02T02:59:49;7.20;99.90
18189;DHT22;9219;50.396;8.546;2024-03-02T03:02:27;7.10;99.90
18189;DHT22;9219;50.396;8.546;2024-03-02T03:07:47;7.10;99.90
18189;DHT22;9219;50.396;8.546;2024-03-02T03:10:17;7.10;99.90
18189;DHT22;9219;50.396;8.546;2024-03-02T03:12:54;7.20;99.90
18189;DHT22;9219;50.396;8.546;2024-03-02T03:15:25;7.30;99.90
18189;DHT22;9219;50.396;8.546;2024-03-02T03:24:33;7.30;99.90
18189;DHT22;9219;50.396;8.546;2024-03-02T03:27:04;7.30;99.90
18189;DHT22;9219;50.396;8.546;2024-03-02T03:29:33;7.30;99.90
18189;DHT22;9219;50.396;8.546;2024-03-02T03:32:01;7.10;99.90
18189;DHT22;9219;50.396;8.546;2024-03-02T03:34:34;7.10;99.90
18189;DHT22;9219;50.396;8.546;2024-03-02T03:37:01;7.10;99.90
18189;DHT22;9219;50.396;8.546;2024-03-02T03:39:34;7.10;99.90
18189;DHT22;9219;50.396;8.546;2024-03-02T03:42:05;7.20;99.90
18189;DHT22;9219;50.396;8.546;2024-03-02T03:59:42;7.20;99.90
18189;DHT22;9219;50.396;8.546;2024-03-02T04:02:11;6.90;99.90
18189;DHT22;9219;50.396;8.546;2024-03-02T04:04:53;6.90;99.90
18189;DHT22;9219;50.396;8.546;2024-03-02T04:07:24;6.90;99.90
18189;DHT22;9219;50.396;8.546;2024-03-02T04:09:52;6.80;99.90
18189;DHT22;9219;50.396;8.546;2024-03-02T04:12:19;6.80;99.90
18189;DHT22;9219;50.396;8.546;2024-03-02T04:14:47;6.70;99.90
18189;DHT22;9219;50.396;8.546;2024-03-02T04:17:29;6.60;99.90
18189;DHT22;9219;50.396;8.546;2024-03-02T04:19:59;6.60;99.90
18189;DHT22;9219;50.396;8.546;2024-03-02T04:37:56;6.70;99.90
18189;DHT22;9219;50.396;8.546;2024-03-02T04:40:27;6.60;99.90
18189;DHT22;9219;50.396;8.546;2024-03-02T04:42:55;6.70;99.90
18189;DHT22;9219;50.396;8.546;2024-03-02T04:45:26;6.70;99.90
18189;DHT22;9219;50.396;8.546;2024-03-02T04:47:54;6.70;99.90
18189;DHT22;9219;50.396;8.546;2024-03-02T04:50:24;6.80;99.90
18189;DHT22;9219;50.396;8.546;2024-03-02T04:52:58;6.90;99.90
18189;DHT22;9219;50.396;8.546;2024-03-02T04:55:25;6.80;99.90
18189;DHT22;9219;50.396;8.546;2024-03-02T04:58:18;6.80;99.90
18189;DHT22;9219;50.396;8.546;2024-03-02T05:18:09;6.70;99.90
18189;DHT22;9219;50.396;8.546;2024-03-02T05:20:37;6.70;99.90
18189;DHT22;9219;50.396;8.546;2024-03-02T05:23:04;6.80;99.90
18189;DHT22;9219;50.396;8.546;2024-03-02T05:25:32;7.00;99.90
18189;DHT22;9219;50.396;8.546;2024-03-02T05:28:04;7.10;99.90
18189;DHT22;9219;50.396;8.546;2024-03-02T05:30:35;6.90;99.90
18189;DHT22;9219;50.396;8.546;2024-03-02T05:33:19;6.80;99.90
18189;DHT22;9219;50.396;8.546;2024-03-02T05:35:51;6.80;99.90
18189;DHT22;9219;50.396;8.546;2024-03-02T05:53:58;6.60;99.90
18189;DHT22;9219;50.396;8.546;2024-03-02T05:56:26;6.80;99.90
18189;DHT22;9219;50.396;8.546;2024-03-02T05:58:56;7.00;99.90
18189;DHT22;9219;50.396;8.546;2024-03-02T06:01:34;7.00;99.90
18189;DHT22;9219;50.396;8.546;2024-03-02T06:04:02;7.00;99.90
18189;DHT22;9219;50.396;8.546;2024-03-02T06:06:35;7.00;99.90
18189;DHT22;9219;50.396;8.546;2024-03-02T06:09:11;6.90;99.90
18189;DHT22;9219;50.396;8.546;2024-03-02T06:14:43;6.90;99.90
18189;DHT22;9219;50.396;8.546;2024-03-02T06:17:11;6.60;99.90
18189;DHT22;9219;50.396;8.546;2024-03-02T06:19:41;6.70;99.90
18189;DHT22;9219;50.396;8.546;2024-03-02T06:22:08;6.60;99.90
18189;DHT22;9219;50.396;8.546;2024-03-02T06:24:36;6.50;99.90
18189;DHT22;9219;50.396;8.546;2024-03-02T06:27:08;6.50;99.90
18189;DHT22;9219;50.396;8.546;2024-03-02T06:29:36;6.50;99.90
18189;DHT22;9219;50.396;8.546;2024-03-02T06:32:13;6.40;99.90
18189;DHT22;9219;50.396;8.546;2024-03-02T06:39:58;6.40;99.90
18189;DHT22;9219;50.396;8.546;2024-03-02T06:42:26;6.50;99.90
18189;DHT22;9219;50.396;8.546;2024-03-02T06:44:55;6.50;99.90
18189;DHT22;9219;50.396;8.546;2024-03-02T06:47:23;6.70;99.90
18189;DHT22;9219;50.396;8.546;2024-03-02T06:49:51;6.80;99.90
18189;DHT22;9219;50.396;8.546;2024-03-02T06:52:20;6.80;99.90
18189;DHT22;9219;50.396;8.546;2024-03-02T06:54:51;6.90;99.90
18189;DHT22;9219;50.396;8.546;2024-03-02T06:57:19;6.70;99.90
18189;DHT22;9219;50.396;8.546;2024-03-02T06:59:56;6.60;99.90
18189;DHT22;9219;50.396;8.546;2024-03-02T07:17:05;6.80;99.90
18189;DHT22;9219;50.396;8.546;2024-03-02T07:19:33;6.90;99.90
18189;DHT22;9219;50.396;8.546;2024-03-02T07:22:02;7.10;99.90
18189;DHT22;9219;50.396;8.546;2024-03-02T07:24:41;7.00;99.90
18189;DHT22;9219;50.396;8.546;2024-03-02T07:27:11;7.00;99.90
18189;DHT22;9219;50.396;8.546;2024-03-02T07:29:58;7.10;99.90
18189;DHT22;9219;50.396;8.546;2024-03-02T07:32:40;7.10;99.90
18189;DHT22;9219;50.396;8.546;2024-03-02T07:35:17;6.90;99.90
18189;DHT22;9219;50.396;8.546;2024-03-02T07:41:59;6.80;99.90
18189;DHT22;9219;50.396;8.546;2024-03-02T07:44:27;6.90;99.90
18189;DHT22;9219;50.396;8.546;2024-03-02T07:46:54;7.00;99.90
18189;DHT22;9219;50.396;8.546;2024-03-02T07:49:22;7.10;99.90
18189;DHT22;9219;50.396;8.546;2024-03-02T07:51:49;7.10;99.90
18189;DHT22;9219;50.396;8.546;2024-03-02T07:54:17;7.30;99.90
18189;DHT22;9219;50.396;8.546;2024-03-02T07:56:45;7.40;99.90
18189;DHT22;9219;50.396;8.546;2024-03-02T07:59:14;7.60;99.90
18189;DHT22;9219;50.396;8.546;2024-03-02T08:06:12;7.70;99.90
18189;DHT22;9219;50.396;8.546;2024-03-02T08:08:39;7.90;99.90
18189;DHT22;9219;50.396;8.546;2024-03-02T08:11:13;8.00;99.90
18189;DHT22;9219;50.396;8.546;2024-03-02T08:13:41;8.00;99.90
18189;DHT22;9219;50.396;8.546;2024-03-02T08:16:10;8.00;99.90
18189;DHT22;9219;50.396;8.546;2024-03-02T08:18:37;8.00;99.90
18189;DHT22;9219;50.396;8.546;2024-03-02T08:21:04;7.90;99.90
18189;DHT22;9219;50.396;8.546;2024-03-02T08:23:53;8.00;99.90
18189;DHT22;9219;50.396;8.546;2024-03-02T08:41:55;8.20;99.90
18189;DHT22;9219;50.396;8.546;2024-03-02T08:44:25;8.40;99.90
18189;DHT22;9219;50.396;8.546;2024-03-02T08:46:52;8.60;99.90
18189;DHT22;9219;50.396;8.546;2024-03-02T08:49:19;8.60;99.90
18189;DHT22;9219;50.396;8.546;2024-03-02T08:51:49;8.60;99.90
18189;DHT22;9219;50.396;8.546;2024-03-02T08:54:21;8.70;99.90
18189;DHT22;9219;50.396;8.546;2024-03-02T08:56:49;8.90;99.90
18189;DHT22;9219;50.396;8.546;2024-03-02T08:59:18;8.90;99.90
18189;DHT22;9219;50.396;8.546;2024-03-02T09:18:57;9.10;99.90
18189;DHT22;9219;50.396;8.546;2024-03-02T09:24:30;9.60;99.90
18189;DHT22;9219;50.396;8.546;2024-03-02T09:26:58;9.80;99.90
18189;DHT22;9219;50.396;8.546;2024-03-02T09:29:31;9.80;99.90
18189;DHT22;9219;50.396;8.546;2024-03-02T09:32:17;9.90;99.90
18189;DHT22;9219;50.396;8.546;2024-03-02T09:34:46;9.90;99.90
18189;DHT22;9219;50.396;8.546;2024-03-02T09:40:24;9.90;99.90
18189;DHT22;9219;50.396;8.546;2024-03-02T09:43:12;10.10;99.90
18189;DHT22;9219;50.396;8.546;2024-03-02T09:45:46;10.40;99.90
18189;DHT22;9219;50.396;8.546;2024-03-02T09:48:15;10.70;99.90
18189;DHT22;9219;50.396;8.546;2024-03-02T09:50:45;10.90;99.90
18189;DHT22;9219;50.396;8.546;2024-03-02T09:53:32;10.90;99.90
18189;DHT22;9219;50.396;8.546;2024-03-02T09:56:06;11.10;99.90
18189;DHT22;9219;50.396;8.546;2024-03-02T09:58:34;11.30;99.90
18189;DHT22;9219;50.396;8.546;2024-03-02T10:02:07;11.30;99.90
18189;DHT22;9219;50.396;8.546;2024-03-02T10:20:49;11.70;99.90
18189;DHT22;9219;50.396;8.546;2024-03-02T10:23:36;12.70;99.90
18189;DHT22;9219;50.396;8.546;2024-03-02T10:26:18;12.80;99.90
18189;DHT22;9219;50.396;8.546;2024-03-02T10:28:50;12.80;99.90
18189;DHT22;9219;50.396;8.546;2024-03-02T10:31:38;12.60;99.90
18189;DHT22;9219;50.396;8.546;2024-03-02T10:34:06;12.60;99.90
18189;DHT22;9219;50.396;8.546;2024-03-02T10:36:35;12.70;99.90
18189;DHT22;9219;50.396;8.546;2024-03-02T10:39:17;12.90;99.90
18189;DHT22;9219;50.396;8.546;2024-03-02T10:41:52;12.90;99.90
18189;DHT22;9219;50.396;8.546;2024-03-02T10:47:31;12.60;99.90
18189;DHT22;9219;50.396;8.546;2024-03-02T10:50:02;12.90;99.90
18189;DHT22;9219;50.396;8.546;2024-03-02T10:52:35;12.90;99.90
18189;DHT22;9219;50.396;8.546;2024-03-02T10:55:33;13.00;99.90
18189;DHT22;9219;50.396;8.546;2024-03-02T10:58:10;13.00;99.90
18189;DHT22;9219;50.396;8.546;2024-03-02T11:01:09;13.10;99.90
18189;DHT22;9219;50.396;8.546;2024-03-02T11:03:56;13.30;99.90
18189;DHT22;9219;50.396;8.546;2024-03-02T11:06:56;13.30;99.90
18189;DHT22;9219;50.396;8.546;2024-03-02T11:09:29;13.30;99.90
18189;DHT22;9219;50.396;8.546;2024-03-02T11:17:29;13.40;99.90
18189;DHT22;9219;50.396;8.546;2024-03-02T11:20:08;13.50;99.90
18189;DHT22;9219;50.396;8.546;2024-03-02T11:23:04;13.50;99.90
18189;DHT22;9219;50.396;8.546;2024-03-02T11:25:34;13.60;99.90
18189;DHT22;9219;50.396;8.546;2024-03-02T11:28:04;13.60;99.90
18189;DHT22;9219;50.396;8.546;2024-03-02T11:30:56;13.60;99.90
18189;DHT22;9219;50.396;8.546;2024-03-02T11:33:27;13.70;99.90
18189;DHT22;9219;50.396;8.546;2024-03-02T11:36:00;13.60;99.90
18189;DHT22;9219;50.396;8.546;2024-03-02T11:46:29;13.60;99.90
18189;DHT22;9219;50.396;8.546;2024-03-02T11:49:03;13.70;99.90
18189;DHT22;9219;50.396;8.546;2024-03-02T11:52:18;13.70;99.90
18189;DHT22;9219;50.396;8.546;2024-03-02T11:55:10;13.70;99.90
18189;DHT22;9219;50.396;8.546;2024-03-02T11:57:58;13.50;99.90
18189;DHT22;9219;50.396;8.546;2024-03-02T12:00:34;13.50;99.90
18189;DHT22;9219;50.396;8.546;2024-03-02T12:03:04;13.60;99.90
18189;DHT22;9219;50.396;8.546;2024-03-02T12:05:34;13.70;99.90
18189;DHT22;9219;50.396;8.546;2024-03-02T12:13:00;13.80;99.90
18189;DHT22;9219;50.396;8.546;2024-03-02T12:15:30;13.80;99.90
18189;DHT22;9219;50.396;8.546;2024-03-02T12:18:00;14.00;99.90
18189;DHT22;9219;50.396;8.546;2024-03-02T12:20:37;14.10;99.90
18189;DHT22;9219;50.396;8.546;2024-03-02T12:23:05;14.20;99.90
18189;DHT22;9219;50.396;8.546;2024-03-02T12:25:32;14.40;99.90
18189;DHT22;9219;50.396;8.546;2024-03-02T12:28:03;14.40;99.90
18189;DHT22;9219;50.396;8.546;2024-03-02T12:30:45;14.50;99.90
18189;DHT22;9219;50.396;8.546;2024-03-02T12:37:56;14.70;99.90
18189;DHT22;9219;50.396;8.546;2024-03-02T12:40:25;14.80;99.90
18189;DHT22;9219;50.396;8.546;2024-03-02T12:42:52;14.80;99.90
18189;DHT22;9219;50.396;8.546;2024-03-02T12:45:25;14.90;99.90
18189;DHT22;9219;50.396;8.546;2024-03-02T12:48:00;15.00;99.90
18189;DHT22;9219;50.396;8.546;2024-03-02T12:50:40;14.90;99.90
18189;DHT22;9219;50.396;8.546;2024-03-02T12:56:12;15.10;99.90
18189;DHT22;9219;50.396;8.546;2024-03-02T12:58:40;15.10;99.90
18189;DHT22;9219;50.396;8.546;2024-03-02T13:01:09;15.10;99.90
18189;DHT22;9219;50.396;8.546;2024-03-02T13:03:40;15.20;99.90
18189;DHT22;9219;50.396;8.546;2024-03-02T13:06:10;15.30;99.90
18189;DHT22;9219;50.396;8.546;2024-03-02T13:08:44;15.30;99.90
18189;DHT22;9219;50.396;8.546;2024-03-02T13:11:16;15.30;99.90
18189;DHT22;9219;50.396;8.546;2024-03-02T13:26:54;15.20;99.90
18189;DHT22;9219;50.396;8.546;2024-03-02T13:29:24;15.70;99.90
18189;DHT22;9219;50.396;8.546;2024-03-02T13:31:53;15.50;99.90
18189;DHT22;9219;50.396;8.546;2024-03-02T13:34:23;15.50;99.90
18189;DHT22;9219;50.396;8.546;2024-03-02T13:36:59;15.60;99.90
18189;DHT22;9219;50.396;8.546;2024-03-02T13:39:39;15.70;99.90
18189;DHT22;9219;50.396;8.546;2024-03-02T13:42:13;15.70;99.90
18189;DHT22;9219;50.396;8.546;2024-03-02T13:52:21;15.60;99.90
18189;DHT22;9219;50.396;8.546;2024-03-02T13:54:48;15.40;99.90
18189;DHT22;9219;50.396;8.546;2024-03-02T13:57:20;15.40;99.90
18189;DHT22;9219;50.396;8.546;2024-03-02T13:59:53;15.40;99.90
18189;DHT22;9219;50.396;8.546;2024-03-02T14:02:24;15.60;99.90
18189;DHT22;9219;50.396;8.546;2024-03-02T14:05:01;15.70;99.90
18189;DHT22;9219;50.396;8.546;2024-03-02T14:07:34;15.50;99.90
18189;DHT22;9219;50.396;8.546;2024-03-02T14:10:21;15.50;99.90
18189;DHT22;9219;50.396;8.546;2024-03-02T14:17:33;15.40;99.90
18189;DHT22;9219;50.396;8.546;2024-03-02T14:20:19;15.20;99.90
18189;DHT22;9219;50.396;8.546;2024-03-02T14:23:06;15.40;99.90
18189;DHT22;9219;50.396;8.546;2024-03-02T14:25:48;15.40;99.90
18189;DHT22;9219;50.396;8.546;2024-03-02T14:31:23;15.50;99.90
18189;DHT22;9219;50.396;8.546;2024-03-02T14:34:23;15.40;99.90
18189;DHT22;9219;50.396;8.546;2024-03-02T14:36:52;15.50;99.90
18189;DHT22;9219;50.396;8.546;2024-03-02T14:44:53;15.20;99.90
18189;DHT22;9219;50.396;8.546;2024-03-02T14:47:52;15.10;99.90
18189;DHT22;9219;50.396;8.546;2024-03-02T14:50:23;15.00;99.90
18189;DHT22;9219;50.396;8.546;2024-03-02T14:53:07;15.00;99.90
18189;DHT22;9219;50.396;8.546;2024-03-02T14:55:53;14.90;99.90
18189;DHT22;9219;50.396;8.546;2024-03-02T14:58:30;14.90;99.90
18189;DHT22;9219;50.396;8.546;2024-03-02T15:01:00;14.90;99.90
18189;DHT22;9219;50.396;8.546;2024-03-02T15:03:28;15.00;99.90
18189;DHT22;9219;50.396;8.546;2024-03-02T15:06:09;15.10;99.90
18189;DHT22;9219;50.396;8.546;2024-03-02T15:11:38;15.10;99.90
18189;DHT22;9219;50.396;8.546;2024-03-02T15:14:10;15.00;99.90
18189;DHT22;9219;50.396;8.546;2024-03-02T15:16:37;14.90;99.90
18189;DHT22;9219;50.396;8.546;2024-03-02T15:19:04;14.90;99.90
18189;DHT22;9219;50.396;8.546;2024-03-02T15:21:34;14.90;99.90
18189;DHT22;9219;50.396;8.546;2024-03-02T15:24:07;14.90;99.90
18189;DHT22;9219;50.396;8.546;2024-03-02T15:26:42;15.00;99.90
18189;DHT22;9219;50.396;8.546;2024-03-02T15:29:13;14.80;99.90
18189;DHT22;9219;50.396;8.546;2024-03-02T15:36:56;14.70;99.90
18189;DHT22;9219;50.396;8.546;2024-03-02T15:39:24;14.70;99.90
18189;DHT22;9219;50.396;8.546;2024-03-02T15:41:55;14.70;99.90
18189;DHT22;9219;50.396;8.546;2024-03-02T15:44:25;14.70;99.90
18189;DHT22;9219;50.396;8.546;2024-03-02T15:46:54;14.60;99.90
18189;DHT22;9219;50.396;8.546;2024-03-02T15:49:26;14.70;99.90
18189;DHT22;9219;50.396;8.546;2024-03-02T15:51:54;14.60;99.90
18189;DHT22;9219;50.396;8.546;2024-03-02T15:59:37;14.60;99.90
18189;DHT22;9219;50.396;8.546;2024-03-02T16:02:12;14.40;99.90
18189;DHT22;9219;50.396;8.546;2024-03-02T16:04:41;14.50;99.90
18189;DHT22;9219;50.396;8.546;2024-03-02T16:07:09;14.50;99.90
18189;DHT22;9219;50.396;8.546;2024-03-02T16:09:39;14.40;99.90
18189;DHT22;9219;50.396;8.546;2024-03-02T16:12:07;14.40;99.90
18189;DHT22;9219;50.396;8.546;2024-03-02T16:14:42;14.40;99.90
18189;DHT22;9219;50.396;8.546;2024-03-02T16:17:12;14.60;99.90
18189;DHT22;9219;50.396;8.546;2024-03-02T16:22:27;14.60;99.90
18189;DHT22;9219;50.396;8.546;2024-03-02T16:24:59;14.60;99.90
18189;DHT22;9219;50.396;8.546;2024-03-02T16:27:27;14.60;99.90
18189;DHT22;9219;50.396;8.546;2024-03-02T16:29:55;14.90;99.90
18189;DHT22;9219;50.396;8.546;2024-03-02T16:32:24;14.80;99.90
18189;DHT22;9219;50.396;8.546;2024-03-02T16:34:52;14.60;99.90
18189;DHT22;9219;50.396;8.546;2024-03-02T16:37:20;14.60;99.90
18189;DHT22;9219;50.396;8.546;2024-03-02T16:45:11;14.50;99.90
18189;DHT22;9219;50.396;8.546;2024-03-02T16:47:44;14.20;99.90
18189;DHT22;9219;50.396;8.546;2024-03-02T16:50:12;14.10;99.90
18189;DHT22;9219;50.396;8.546;2024-03-02T16:52:47;14.30;99.90
18189;DHT22;9219;50.396;8.546;2024-03-02T16:55:35;14.30;99.90
18189;DHT22;9219;50.396;8.546;2024-03-02T16:58:15;14.20;99.90
18189;DHT22;9219;50.396;8.546;2024-03-02T17:01:06;14.20;99.90
18189;DHT22;9219;50.396;8.546;2024-03-02T17:03:34;14.20;99.90
18189;DHT22;9219;50.396;8.546;2024-03-02T17:11:14;14.40;99.90
18189;DHT22;9219;50.396;8.546;2024-03-02T17:13:44;14.30;99.90
18189;DHT22;9219;50.396;8.546;2024-03-02T17:16:12;14.40;99.90
18189;DHT22;9219;50.396;8.546;2024-03-02T17:18:41;14.20;99.90
18189;DHT22;9219;50.396;8.546;2024-03-02T17:21:09;14.00;99.90
18189;DHT22;9219;50.396;8.546;2024-03-02T17:23:38;13.90;99.90
18189;DHT22;9219;50.396;8.546;2024-03-02T17:26:15;13.80;99.90
18189;DHT22;9219;50.396;8.546;2024-03-02T17:31:33;13.70;99.90
18189;DHT22;9219;50.396;8.546;2024-03-02T17:34:05;13.40;99.90
18189;DHT22;9219;50.396;8.546;2024-03-02T17:36:39;13.10;99.90
18189;DHT22;9219;50.396;8.546;2024-03-02T17:39:09;13.00;99.90
18189;DHT22;9219;50.396;8.546;2024-03-02T17:41:53;13.00;99.90
18189;DHT22;9219;50.396;8.546;2024-03-02T17:44:22;12.90;99.90
18189;DHT22;9219;50.396;8.546;2024-03-02T17:46:53;12.90;99.90
18189;DHT22;9219;50.396;8.546;2024-03-02T17:53:59;12.80;99.90
18189;DHT22;9219;50.396;8.546;2024-03-02T17:56:30;12.70;99.90
18189;DHT22;9219;50.396;8.546;2024-03-02T17:58:59;12.60;99.90
18189;DHT22;9219;50.396;8.546;2024-03-02T18:01:26;12.60;99.90
18189;DHT22;9219;50.396;8.546;2024-03-02T18:04:07;12.50;99.90
18189;DHT22;9219;50.396;8.546;2024-03-02T18:06:42;12.40;99.90
18189;DHT22;9219;50.396;8.546;2024-03-02T18:09:10;12.40;99.90
18189;DHT22;9219;50.396;8.546;2024-03-02T18:14:26;12.30;99.90
18189;DHT22;9219;50.396;8.546;2024-03-02T18:16:54;12.20;99.90
18189;DHT22;9219;50.396;8.546;2024-03-02T18:19:20;12.10;99.90
18189;DHT22;9219;50.396;8.546;2024-03-02T18:21:48;12.10;99.90
18189;DHT22;9219;50.396;8.546;2024-03-02T18:24:16;11.90;99.90
18189;DHT22;9219;50.396;8.546;2024-03-02T18:26:43;11.90;99.90
18189;DHT22;9219;50.396;8.546;2024-03-02T18:29:11;11.90;99.90
18189;DHT22;9219;50.396;8.546;2024-03-02T18:31:41;11.80;99.90
18189;DHT22;9219;50.396;8.546;2024-03-02T18:38:26;11.90;99.90
18189;DHT22;9219;50.396;8.546;2024-03-02T18:40:53;11.60;99.90
18189;DHT22;9219;50.396;8.546;2024-03-02T18:43:23;11.70;99.90
18189;DHT22;9219;50.396;8.546;2024-03-02T18:45:50;11.60;99.90
18189;DHT22;9219;50.396;8.546;2024-03-02T18:48:22;11.50;99.90
18189;DHT22;9219;50.396;8.546;2024-03-02T18:50:49;11.50;99.90
18189;DHT22;9219;50.396;8.546;2024-03-02T18:53:16;11.50;99.90
18189;DHT22;9219;50.396;8.546;2024-03-02T18:58:31;11.50;99.90
18189;DHT22;9219;50.396;8.546;2024-03-02T19:00:59;11.50;99.90
18189;DHT22;9219;50.396;8.546;2024-03-02T19:03:26;11.60;99.90
18189;DHT22;9219;50.396;8.546;2024-03-02T19:05:55;11.70;99.90
18189;DHT22;9219;50.396;8.546;2024-03-02T19:08:24;11.70;99.90
18189;DHT22;9219;50.396;8.546;2024-03-02T19:10:51;11.60;99.90
18189;DHT22;9219;50.396;8.546;2024-03-02T19:13:21;11.60;99.90
18189;DHT22;9219;50.396;8.546;2024-03-02T19:20:43;11.50;99.90
18189;DHT22;9219;50.396;8.546;2024-03-02T19:23:10;11.50;99.90
18189;DHT22;9219;50.396;8.546;2024-03-02T19:25:47;11.50;99.90
18189;DHT22;9219;50.396;8.546;2024-03-02T19:28:14;11.50;99.90
18189;DHT22;9219;50.396;8.546;2024-03-02T19:30:41;11.40;99.90
18189;DHT22;9219;50.396;8.546;2024-03-02T19:33:12;11.40;99.90
18189;DHT22;9219;50.396;8.546;2024-03-02T19:35:40;11.40;99.90
18189;DHT22;9219;50.396;8.546;2024-03-02T19:42:41;11.50;99.90
18189;DHT22;9219;50.396;8.546;2024-03-02T19:45:09;11.40;99.90
18189;DHT22;9219;50.396;8.546;2024-03-02T19:47:36;11.30;99.90
18189;DHT22;9219;50.396;8.546;2024-03-02T19:50:04;11.20;99.90
18189;DHT22;9219;50.396;8.546;2024-03-02T19:52:32;11.20;99.90
18189;DHT22;9219;50.396;8.546;2024-03-02T19:55:00;11.30;99.90
18189;DHT22;9219;50.396;8.546;2024-03-02T19:57:29;11.30;99.90
18189;DHT22;9219;50.396;8.546;2024-03-02T20:04:56;11.20;99.90
18189;DHT22;9219;50.396;8.546;2024-03-02T20:07:23;11.30;99.90
18189;DHT22;9219;50.396;8.546;2024-03-02T20:09:51;11.20;99.90
18189;DHT22;9219;50.396;8.546;2024-03-02T20:12:19;11.30;99.90
18189;DHT22;9219;50.396;8.546;2024-03-02T20:14:48;11.30;99.90
18189;DHT22;9219;50.396;8.546;2024-03-02T20:17:15;11.20;99.90
18189;DHT22;9219;50.396;8.546;2024-03-02T20:19:42;11.20;99.90
18189;DHT22;9219;50.396;8.546;2024-03-02T20:27:14;11.20;99.90
18189;DHT22;9219;50.396;8.546;2024-03-02T20:29:42;11.20;99.90
18189;DHT22;9219;50.396;8.546;2024-03-02T20:32:09;11.10;99.90
18189;DHT22;9219;50.396;8.546;2024-03-02T20:34:36;11.10;99.90
18189;DHT22;9219;50.396;8.546;2024-03-02T20:37:04;11.10;99.90
18189;DHT22;9219;50.396;8.546;2024-03-02T20:39:32;11.10;99.90
18189;DHT22;9219;50.396;8.546;2024-03-02T20:41:59;11.10;99.90
18189;DHT22;9219;50.396;8.546;2024-03-02T20:47:08;11.10;99.90
18189;DHT22;9219;50.396;8.546;2024-03-02T20:49:36;11.10;99.90
18189;DHT22;9219;50.396;8.546;2024-03-02T20:52:03;11.10;99.90
18189;DHT22;9219;50.396;8.546;2024-03-02T20:54:31;10.90;99.90
18189;DHT22;9219;50.396;8.546;2024-03-02T20:56:59;10.80;99.90
18189;DHT22;9219;50.396;8.546;2024-03-02T20:59:26;10.90;99.90
18189;DHT22;9219;50.396;8.546;2024-03-02T21:01:54;11.00;99.90
18189;DHT22;9219;50.396;8.546;2024-03-02T21:09:13;10.90;99.90
18189;DHT22;9219;50.396;8.546;2024-03-02T21:11:40;10.80;99.90
18189;DHT22;9219;50.396;8.546;2024-03-02T21:14:10;11.00;99.90
18189;DHT22;9219;50.396;8.546;2024-03-02T21:16:38;10.80;99.90
18189;DHT22;9219;50.396;8.546;2024-03-02T21:19:07;10.90;99.90
18189;DHT22;9219;50.396;8.546;2024-03-02T21:21:34;10.80;99.90
18189;DHT22;9219;50.396;8.546;2024-03-02T21:24:06;10.80;99.90
18189;DHT22;9219;50.396;8.546;2024-03-02T21:31:36;10.70;99.90
18189;DHT22;9219;50.396;8.546;2024-03-02T21:34:03;10.70;99.90
18189;DHT22;9219;50.396;8.546;2024-03-02T21:36:31;10.70;99.90
18189;DHT22;9219;50.396;8.546;2024-03-02T21:38:58;10.80;99.90
18189;DHT22;9219;50.396;8.546;2024-03-02T21:41:30;10.80;99.90
18189;DHT22;9219;50.396;8.546;2024-03-02T21:43:57;10.70;99.90
18189;DHT22;9219;50.396;8.546;2024-03-02T21:46:24;10.70;99.90
18189;DHT22;9219;50.396;8.546;2024-03-02T21:54:01;10.60;99.90
18189;DHT22;9219;50.396;8.546;2024-03-02T21:56:35;10.60;99.90
18189;DHT22;9219;50.396;8.546;2024-03-02T21:59:03;10.60;99.90